createdAt,value
2023-01-01T00:02:30.436Z,24.40
2023-01-01T00:08:37.301Z,24.20
2023-01-01T00:14:48.289Z,24.00
2023-01-01T00:20:57.097Z,24.10
2023-01-01T00:27:10.015Z,24.40
2023-01-01T00:33:19.537Z,24.50
2023-01-01T00:39:28.840Z,24.40
2023-01-01T00:45:41.411Z,24.20
2023-01-01T00:51:52.808Z,24.20
2023-01-01T00:58:02.091Z,24.30
2023-01-01T01:04:13.611Z,24.40
2023-01-01T01:10:23.040Z,24.50
2023-01-01T01:16:34.809Z,24.40
2023-01-01T01:22:42.274Z,24.20
2023-01-01T01:28:52.215Z,24.10
2023-01-01T01:35:03.108Z,24.00
2023-01-01T01:41:26.875Z,24.00
2023-01-01T01:47:27.086Z,23.90
2023-01-01T01:53:39.059Z,23.90
2023-01-01T01:59:50.466Z,23.90
2023-01-01T02:06:01.459Z,23.80
2023-01-01T02:12:14.666Z,23.80
2023-01-01T02:18:25.953Z,23.80
2023-01-01T02:24:58.087Z,23.80
2023-01-01T02:31:10.935Z,24.10
2023-01-01T02:37:21.052Z,24.30
2023-01-01T02:43:30.759Z,24.60
2023-01-01T02:49:40.752Z,24.80
2023-01-01T02:56:01.869Z,25.00
2023-01-01T03:02:15.170Z,25.10
2023-01-01T03:08:25.373Z,24.90
2023-01-01T03:14:37.469Z,24.70
2023-01-01T03:20:52.087Z,24.50
2023-01-01T03:27:02.260Z,24.40
2023-01-01T03:33:13.936Z,24.60
2023-01-01T03:39:25.925Z,24.90
2023-01-01T03:45:37.933Z,24.80
2023-01-01T03:52:06.326Z,24.60
2023-01-01T03:58:22.033Z,24.60
2023-01-01T04:04:31.942Z,24.90
2023-01-01T04:10:42.564Z,25.10
2023-01-01T04:16:50.133Z,25.10
2023-01-01T04:22:59.440Z,24.90
2023-01-01T04:29:10.907Z,24.70
2023-01-01T04:35:20.173Z,24.50
2023-01-01T04:41:27.711Z,24.40
2023-01-01T04:47:36.029Z,24.40
2023-01-01T04:53:48.619Z,24.40
2023-01-01T04:59:59.563Z,24.40
2023-01-01T05:06:11.360Z,24.30
2023-01-01T05:12:23.841Z,24.30
2023-01-01T05:18:31.391Z,24.30
2023-01-01T05:24:39.805Z,24.20
2023-01-01T05:30:49.783Z,24.10
2023-01-01T05:36:57.188Z,24.00
2023-01-01T05:43:08.154Z,24.00
2023-01-01T05:49:21.159Z,24.00
2023-01-01T05:55:30.087Z,24.10
2023-01-01T06:01:43.428Z,23.90
2023-01-01T06:07:48.755Z,24.00
2023-01-01T06:13:59.561Z,23.90
2023-01-01T06:20:10.365Z,23.90
2023-01-01T06:26:22.087Z,23.90
2023-01-01T06:32:29.506Z,23.80
2023-01-01T06:38:38.936Z,23.90
2023-01-01T06:44:49.479Z,23.70
2023-01-01T06:50:58.307Z,23.70
2023-01-01T06:57:07.392Z,23.70
2023-01-01T07:03:17.649Z,23.60
2023-01-01T07:09:30.216Z,23.60
2023-01-01T07:15:41.400Z,23.60
2023-01-01T07:21:49.732Z,23.60
2023-01-01T07:27:57.825Z,23.50
2023-01-01T07:34:12.752Z,23.40
2023-01-01T07:40:24.924Z,23.50
2023-01-01T07:46:35.977Z,23.30
2023-01-01T07:52:46.033Z,23.40
2023-01-01T07:58:55.935Z,23.30
2023-01-01T08:05:08.267Z,23.30
2023-01-01T08:11:21.342Z,23.30
2023-01-01T08:17:32.759Z,23.20
2023-01-01T08:23:42.900Z,23.30
2023-01-01T08:29:56.870Z,23.20
2023-01-01T08:36:10.885Z,23.20
2023-01-01T08:42:23.230Z,23.20
2023-01-01T08:48:35.321Z,23.10
2023-01-01T08:54:50.610Z,23.10
2023-01-01T09:00:59.265Z,23.00
2023-01-01T09:07:11.395Z,23.00
2023-01-01T09:13:22.433Z,23.00
2023-01-01T09:19:35.106Z,22.90
2023-01-01T09:32:04.828Z,22.90
2023-01-01T09:38:16.716Z,22.90
2023-01-01T09:44:35.403Z,22.80
2023-01-01T09:50:44.723Z,22.80
2023-01-01T09:56:55.049Z,22.80
2023-01-01T10:03:16.358Z,22.70
2023-01-01T10:09:29.216Z,22.80
2023-01-01T10:15:41.323Z,22.70
2023-01-01T10:21:54.937Z,22.70
2023-01-01T10:28:07.026Z,22.60
2023-01-01T10:34:23.867Z,22.50
2023-01-01T10:40:34.331Z,22.50
2023-01-01T10:46:47.486Z,22.50
2023-01-01T10:53:03.565Z,22.40
2023-01-01T10:59:36.014Z,22.40
2023-01-01T11:05:49.747Z,22.40
2023-01-01T11:12:11.887Z,22.40
2023-01-01T11:18:19.610Z,22.30
2023-01-01T11:24:31.159Z,22.30
2023-01-01T11:30:44.176Z,22.30
2023-01-01T11:36:57.709Z,22.20
2023-01-01T11:43:12.999Z,22.20
2023-01-01T11:49:28.331Z,22.20
2023-01-01T11:55:46.708Z,22.20
2023-01-01T12:02:00.599Z,22.10
2023-01-01T12:08:11.883Z,22.10
2023-01-01T12:14:23.042Z,22.10
2023-01-01T12:20:33.832Z,22.10
2023-01-01T12:26:52.294Z,22.10
2023-01-01T12:33:25.953Z,22.10
2023-01-01T12:40:14.958Z,22.40
2023-01-01T12:46:28.785Z,22.60
2023-01-01T12:52:46.114Z,22.90
2023-01-01T12:58:58.847Z,23.10
2023-01-01T13:05:17.128Z,23.40
2023-01-01T13:11:29.228Z,23.20
2023-01-01T13:17:39.407Z,23.20
2023-01-01T13:23:58.313Z,23.40
2023-01-01T13:30:10.233Z,23.70
2023-01-01T13:36:39.632Z,23.70
2023-01-01T13:43:00.743Z,23.60
2023-01-01T13:49:35.556Z,23.40
2023-01-01T13:55:52.451Z,23.30
2023-01-01T14:02:06.007Z,23.40
2023-01-01T14:08:31.733Z,23.70
2023-01-01T14:14:46.416Z,23.80
2023-01-01T14:20:57.685Z,23.70
2023-01-01T14:27:07.707Z,23.70
2023-01-01T14:33:29.535Z,23.60
2023-01-01T14:39:43.851Z,23.50
2023-01-01T14:45:56.660Z,23.50
2023-01-01T14:52:09.008Z,23.50
2023-01-01T14:58:21.995Z,23.50
2023-01-01T15:04:32.401Z,23.50
2023-01-01T15:10:44.176Z,23.60
2023-01-01T15:17:08.460Z,23.90
2023-01-01T15:23:20.351Z,24.00
2023-01-01T15:29:39.772Z,23.80
2023-01-01T15:35:52.959Z,23.80
2023-01-01T15:42:06.102Z,23.70
2023-01-01T15:48:26.378Z,24.00
2023-01-01T15:54:37.676Z,24.30
2023-01-01T16:00:47.872Z,24.60
2023-01-01T16:07:00.933Z,24.50
2023-01-01T16:13:10.184Z,24.30
2023-01-01T16:19:20.171Z,24.10
2023-01-01T16:25:29.472Z,24.00
2023-01-01T16:31:40.338Z,24.30
2023-01-01T16:37:53.019Z,24.70
2023-01-01T16:44:00.960Z,25.00
2023-01-01T16:50:12.239Z,24.70
2023-01-01T16:56:23.190Z,24.60
2023-01-01T17:02:38.049Z,24.50
2023-01-01T17:08:49.340Z,24.40
2023-01-01T17:14:58.564Z,24.60
2023-01-01T17:21:11.732Z,24.90
2023-01-01T17:27:23.516Z,24.70
2023-01-01T17:33:35.174Z,24.50
2023-01-01T17:39:44.723Z,24.60
2023-01-01T17:45:53.738Z,24.90
2023-01-01T17:52:05.812Z,24.70
2023-01-01T17:58:16.149Z,24.50
2023-01-01T18:04:25.196Z,24.40
2023-01-01T18:10:36.002Z,24.40
2023-01-01T18:16:47.593Z,24.80
2023-01-01T18:22:58.125Z,25.10
2023-01-01T18:29:09.737Z,24.90
2023-01-01T18:35:20.937Z,24.70
2023-01-01T18:41:40.994Z,24.50
2023-01-01T18:47:52.614Z,24.30
2023-01-01T18:54:04.321Z,24.30
2023-01-01T19:00:20.427Z,24.30
2023-01-01T19:06:33.092Z,24.20
2023-01-01T19:12:45.724Z,24.60
2023-01-01T19:18:55.197Z,24.90
2023-01-01T19:25:12.071Z,24.70
2023-01-01T19:31:23.879Z,24.50
2023-01-01T19:37:37.384Z,24.40
2023-01-01T19:43:50.503Z,24.30
2023-01-01T19:50:04.148Z,24.60
2023-01-01T19:56:16.977Z,24.90
2023-01-01T20:02:45.421Z,24.70
2023-01-01T20:08:38.261Z,24.60
2023-01-01T20:14:49.427Z,24.40
2023-01-01T20:21:20.437Z,24.30
2023-01-01T20:27:31.028Z,24.20
2023-01-01T20:33:43.095Z,24.30
2023-01-01T20:39:54.724Z,24.60
2023-01-01T20:46:06.134Z,25.00
2023-01-01T20:52:17.343Z,24.80
2023-01-01T20:58:27.115Z,24.60
2023-01-01T21:04:39.674Z,24.40
2023-01-01T21:10:49.083Z,24.70
2023-01-01T21:17:00.296Z,25.10
2023-01-01T21:23:11.468Z,24.90
2023-01-01T21:29:21.831Z,24.60
2023-01-01T21:35:33.975Z,24.40
2023-01-01T21:41:46.531Z,24.30
2023-01-01T21:47:59.234Z,24.50
2023-01-01T21:54:24.597Z,24.90
2023-01-01T22:00:38.727Z,24.70
2023-01-01T22:06:47.943Z,24.50
2023-01-01T22:13:02.969Z,24.30
2023-01-01T22:19:17.255Z,24.20
2023-01-01T22:25:33.584Z,24.10
2023-01-01T22:31:47.222Z,24.20
2023-01-01T22:37:56.263Z,24.20
2023-01-01T22:44:08.847Z,24.60
2023-01-01T22:50:23.025Z,24.90
2023-01-01T22:56:34.023Z,24.70
2023-01-01T23:02:48.398Z,24.50
2023-01-01T23:08:57.326Z,24.30
2023-01-01T23:15:22.962Z,24.20
2023-01-01T23:21:34.237Z,24.30
2023-01-01T23:27:42.408Z,24.20
2023-01-01T23:33:54.267Z,24.30
2023-01-01T23:40:05.616Z,24.90
2023-01-01T23:46:15.599Z,24.80
2023-01-01T23:52:28.518Z,24.50
2023-01-01T23:58:38.275Z,24.40
